Terminal Aerodrome Forecast
Issued by NWS

Home | Current Version | Previous Version | Text Only | Print | Product List | Glossary On
Versions: 1 2 3 4 5 6 7 8 9 10 11 12 13 14 15 16 17 18 19 20 21 22 23 24 25 26 27 28 29 30 31 32 33 34 35 36 37 38 39 40 41 42 43 44 45 46 47 48 49
000
FTUS44 KLIX 261848 AAA
TAFHUM
TAF AMD
KHUM 261848Z 2619/2718 00000KT P6SM BKN020
     FM262000 00000KT P6SM BKN130
     FM270900 10005KT P6SM BKN015
      TEMPO 2709/2713 1/2SM FG OVC002
     FM271400 08010KT P6SM BKN020=

USA.gov is the U.S. government's official web portal to all federal, state and local government web resources and services.